createdAt,value
2019-03-31T00:00:47.280Z,64.64
2019-03-31T00:03:22.166Z,64.43
2019-03-31T00:05:58.398Z,64.85
2019-03-31T00:08:33.351Z,65.15
2019-03-31T00:11:07.244Z,64.97
2019-03-31T00:13:41.171Z,65.15
2019-03-31T00:16:16.441Z,64.78
2019-03-31T00:18:50.263Z,64.56
2019-03-31T00:21:24.597Z,64.54
2019-03-31T00:23:58.505Z,64.44
2019-03-31T00:26:32.886Z,64.16
2019-03-31T00:29:07.317Z,64.00
2019-03-31T00:31:41.154Z,63.84
2019-03-31T00:34:14.914Z,63.64
2019-03-31T00:36:48.749Z,63.69
2019-03-31T00:39:22.527Z,63.66
2019-03-31T00:41:56.372Z,63.82
2019-03-31T00:44:30.131Z,63.57
2019-03-31T00:47:04.052Z,63.67
2019-03-31T00:49:37.864Z,64.02
2019-03-31T00:52:11.720Z,64.12
2019-03-31T00:54:45.549Z,64.23
2019-03-31T00:57:19.555Z,64.47
2019-03-31T00:59:53.458Z,64.63
2019-03-31T01:02:30.886Z,64.52
2019-03-31T01:05:05.259Z,64.18
2019-03-31T01:07:39.529Z,64.32
2019-03-31T01:10:13.445Z,64.54
2019-03-31T01:12:47.606Z,64.53
2019-03-31T01:15:24.183Z,64.95
2019-03-31T01:17:58.369Z,65.00
2019-03-31T01:20:33.403Z,65.19
2019-03-31T01:23:07.485Z,64.99
2019-03-31T01:25:41.725Z,65.35
2019-03-31T01:28:16.688Z,65.05
2019-03-31T01:30:51.645Z,64.83
2019-03-31T01:33:26.660Z,64.89
2019-03-31T01:36:00.706Z,64.78
2019-03-31T01:38:35.751Z,64.49
2019-03-31T01:41:13.067Z,64.43
2019-03-31T01:43:47.198Z,64.51
2019-03-31T01:46:24.948Z,64.83
2019-03-31T01:49:24.610Z,64.83
2019-03-31T01:51:59.378Z,64.89
2019-03-31T01:54:40.255Z,65.04
2019-03-31T01:57:14.909Z,64.75
2019-03-31T01:59:52.874Z,65.08
2019-03-31T02:02:51.733Z,65.37
2019-03-31T02:05:26.240Z,65.97
2019-03-31T02:08:00.203Z,66.40
2019-03-31T02:10:34.199Z,66.51
2019-03-31T02:13:08.162Z,66.79
2019-03-31T02:15:42.605Z,66.72
2019-03-31T02:18:16.598Z,66.65
2019-03-31T02:20:52.412Z,66.54
2019-03-31T02:23:26.821Z,66.26
2019-03-31T02:26:01.311Z,66.07
2019-03-31T02:28:35.207Z,66.03
2019-03-31T02:31:09.571Z,66.15
2019-03-31T02:33:43.512Z,66.16
2019-03-31T02:36:17.545Z,66.15
2019-03-31T02:38:51.518Z,66.10
2019-03-31T02:41:25.939Z,66.26
2019-03-31T02:43:59.911Z,66.56
2019-03-31T02:46:35.346Z,67.00
2019-03-31T02:49:09.433Z,67.32
2019-03-31T02:51:43.408Z,68.05
2019-03-31T02:54:17.262Z,68.26
2019-03-31T02:56:51.270Z,68.05
2019-03-31T02:59:25.239Z,68.27
2019-03-31T03:01:59.217Z,68.20
2019-03-31T03:04:33.768Z,68.24
2019-03-31T03:07:07.770Z,68.74
2019-03-31T03:09:42.798Z,68.69
2019-03-31T03:12:16.664Z,69.00
2019-03-31T03:14:51.594Z,68.85
2019-03-31T03:17:25.663Z,68.80
2019-03-31T03:19:59.589Z,68.99
2019-03-31T03:22:35.377Z,69.16
2019-03-31T03:25:10.327Z,69.32
2019-03-31T03:27:44.235Z,69.41
2019-03-31T03:30:18.400Z,69.74
2019-03-31T03:33:13.246Z,69.95
2019-03-31T03:35:32.571Z,69.76
2019-03-31T03:38:07.575Z,69.90
2019-03-31T03:40:41.486Z,70.33
2019-03-31T03:43:15.510Z,70.06
2019-03-31T03:45:49.514Z,69.74
2019-03-31T03:48:23.604Z,69.49
2019-03-31T03:50:57.605Z,69.44
2019-03-31T03:53:31.440Z,69.31
2019-03-31T03:56:05.771Z,69.48
2019-03-31T03:58:39.729Z,69.34
2019-03-31T04:01:19.291Z,69.04
2019-03-31T04:03:53.250Z,69.04
2019-03-31T04:06:27.439Z,69.21
2019-03-31T04:09:01.281Z,69.34
2019-03-31T04:11:36.311Z,68.97
2019-03-31T04:14:10.190Z,69.39
2019-03-31T04:16:43.950Z,69.53
2019-03-31T04:19:17.796Z,69.16
2019-03-31T04:21:51.619Z,69.30
2019-03-31T04:24:25.380Z,69.31
2019-03-31T04:26:59.335Z,68.91
2019-03-31T04:29:33.113Z,69.41
2019-03-31T04:32:06.993Z,69.59
2019-03-31T04:34:40.859Z,69.09
2019-03-31T04:37:14.693Z,69.31
2019-03-31T04:39:48.666Z,68.76
2019-03-31T04:42:22.479Z,68.60
2019-03-31T04:44:58.570Z,68.96
2019-03-31T04:47:32.448Z,68.44
2019-03-31T04:50:07.598Z,68.33
2019-03-31T04:52:42.700Z,67.84
2019-03-31T04:55:16.569Z,67.87
2019-03-31T04:57:50.512Z,67.82
2019-03-31T05:00:24.511Z,67.91
2019-03-31T05:02:58.493Z,67.71
2019-03-31T05:05:32.595Z,67.42
2019-03-31T05:08:06.554Z,67.07
2019-03-31T05:10:40.512Z,67.08
2019-03-31T05:13:15.808Z,67.05
2019-03-31T05:15:49.672Z,66.94
2019-03-31T05:18:23.530Z,66.89
2019-03-31T05:20:57.413Z,66.58
2019-03-31T05:23:31.328Z,66.46
2019-03-31T05:26:06.071Z,66.50
2019-03-31T05:28:39.776Z,66.49
2019-03-31T05:31:13.487Z,66.35
2019-03-31T05:33:50.780Z,67.92
2019-03-31T05:36:24.670Z,66.49
2019-03-31T05:38:58.459Z,66.04
2019-03-31T05:41:32.558Z,65.50
2019-03-31T05:44:06.523Z,65.75
2019-03-31T05:46:40.440Z,66.58
2019-03-31T05:49:14.371Z,65.46
2019-03-31T05:51:48.355Z,65.22
2019-03-31T05:54:22.222Z,65.12
2019-03-31T05:56:56.295Z,65.03
2019-03-31T05:59:30.183Z,65.17
2019-03-31T06:02:04.038Z,65.22
2019-03-31T06:04:38.967Z,65.12
2019-03-31T06:07:12.953Z,65.13
2019-03-31T06:09:47.192Z,65.22
2019-03-31T06:12:21.342Z,65.00
2019-03-31T06:14:55.364Z,64.79
2019-03-31T06:17:29.067Z,64.70
2019-03-31T06:20:03.146Z,64.62
2019-03-31T06:22:36.940Z,64.68
2019-03-31T06:25:10.635Z,64.46
2019-03-31T06:27:44.423Z,64.46
2019-03-31T06:30:18.523Z,64.37
2019-03-31T06:32:55.350Z,64.01
2019-03-31T06:35:27.684Z,63.83
2019-03-31T06:38:01.589Z,63.59
2019-03-31T06:40:36.925Z,63.32
2019-03-31T06:43:10.730Z,62.85
2019-03-31T06:45:44.492Z,62.96
2019-03-31T06:48:18.348Z,62.61
2019-03-31T06:50:52.037Z,61.41
2019-03-31T06:53:25.807Z,60.06
2019-03-31T06:55:59.519Z,59.66
2019-03-31T06:58:33.820Z,58.72
2019-03-31T07:01:07.673Z,59.16
2019-03-31T07:03:41.437Z,57.79
2019-03-31T07:06:15.319Z,57.91
2019-03-31T07:08:49.155Z,58.75
2019-03-31T07:11:22.814Z,57.64
2019-03-31T07:13:56.519Z,56.51
2019-03-31T07:16:30.299Z,56.78
2019-03-31T07:19:04.069Z,54.95
2019-03-31T07:21:37.676Z,55.14
2019-03-31T07:24:11.354Z,54.17
2019-03-31T07:26:44.983Z,54.69
2019-03-31T07:29:18.679Z,53.75
2019-03-31T07:31:52.492Z,53.82
2019-03-31T07:34:26.294Z,53.35
2019-03-31T07:37:00.009Z,52.86
2019-03-31T07:39:33.901Z,52.47
2019-03-31T07:42:08.460Z,52.32
2019-03-31T07:44:42.262Z,51.98
2019-03-31T07:47:18.594Z,51.55
2019-03-31T07:50:04.026Z,51.74
2019-03-31T07:52:38.472Z,51.24
2019-03-31T07:55:12.257Z,50.36
2019-03-31T07:57:46.027Z,50.63
2019-03-31T08:00:21.358Z,50.21
2019-03-31T08:02:55.044Z,50.51
2019-03-31T08:05:33.253Z,49.63
2019-03-31T08:08:04.141Z,49.37
2019-03-31T08:10:38.846Z,49.00
2019-03-31T08:13:12.517Z,48.67
2019-03-31T08:15:46.243Z,47.78
2019-03-31T08:18:19.984Z,47.24
2019-03-31T08:20:53.769Z,47.63
2019-03-31T08:23:27.531Z,47.76
2019-03-31T08:26:01.216Z,48.21
2019-03-31T08:28:34.995Z,47.97
2019-03-31T08:31:08.815Z,47.97
2019-03-31T08:33:42.606Z,46.62
2019-03-31T08:36:16.292Z,47.45
2019-03-31T08:38:54.489Z,46.98
2019-03-31T08:41:28.560Z,46.80
2019-03-31T08:44:02.139Z,45.93
2019-03-31T08:46:36.470Z,46.74
2019-03-31T08:49:10.200Z,47.84
2019-03-31T08:51:43.883Z,47.73
2019-03-31T08:54:17.550Z,49.08
2019-03-31T08:56:51.340Z,48.08
2019-03-31T08:59:25.133Z,47.39
2019-03-31T09:01:58.959Z,47.20
2019-03-31T09:04:32.773Z,47.75
2019-03-31T09:07:06.469Z,48.19
2019-03-31T09:09:40.137Z,47.21
2019-03-31T09:12:18.373Z,47.60
2019-03-31T09:14:52.146Z,47.85
2019-03-31T09:17:25.794Z,49.06
2019-03-31T09:19:59.464Z,48.99
2019-03-31T09:22:33.179Z,49.42
2019-03-31T09:25:07.031Z,49.88
2019-03-31T09:27:40.723Z,49.87
2019-03-31T09:30:16.249Z,49.21
2019-03-31T09:32:50.031Z,49.09
2019-03-31T09:35:23.877Z,49.09
2019-03-31T09:37:57.808Z,49.33
2019-03-31T09:40:31.426Z,49.79
2019-03-31T09:43:05.203Z,49.58
2019-03-31T09:45:38.791Z,49.44
2019-03-31T09:48:13.079Z,49.91
2019-03-31T09:50:46.838Z,49.81
2019-03-31T09:53:22.212Z,49.69
2019-03-31T09:55:55.949Z,49.79
2019-03-31T09:58:31.311Z,48.07
2019-03-31T10:01:08.007Z,48.10
2019-03-31T10:03:41.360Z,48.18
2019-03-31T10:06:29.266Z,48.37
2019-03-31T10:08:50.494Z,48.13
2019-03-31T10:11:24.223Z,48.41
2019-03-31T10:13:57.903Z,47.88
2019-03-31T10:16:32.019Z,47.85
2019-03-31T10:19:05.778Z,47.29
2019-03-31T10:21:39.400Z,46.75
2019-03-31T10:24:13.033Z,46.88
2019-03-31T10:26:46.739Z,47.78
2019-03-31T10:29:20.380Z,47.39
2019-03-31T10:31:55.040Z,47.69
2019-03-31T10:34:30.203Z,47.25
2019-03-31T10:37:03.957Z,46.88
2019-03-31T10:39:37.715Z,46.56
2019-03-31T10:42:11.357Z,47.05
2019-03-31T10:44:45.045Z,47.04
2019-03-31T10:47:18.767Z,47.12
2019-03-31T10:49:52.401Z,46.59
2019-03-31T10:52:26.017Z,46.14
2019-03-31T10:54:59.691Z,45.99
2019-03-31T10:57:33.280Z,45.76
2019-03-31T11:00:07.573Z,45.30
2019-03-31T11:02:41.317Z,46.00
2019-03-31T11:05:15.039Z,46.13
2019-03-31T11:07:48.703Z,49.60
2019-03-31T11:10:22.404Z,47.14
2019-03-31T11:12:56.133Z,46.71
2019-03-31T11:15:29.821Z,46.93
2019-03-31T11:18:03.405Z,46.20
2019-03-31T11:20:37.165Z,46.14
2019-03-31T11:23:18.912Z,46.19
2019-03-31T11:25:52.692Z,45.28
2019-03-31T11:28:27.128Z,45.17
2019-03-31T11:31:01.185Z,45.20
2019-03-31T11:33:34.833Z,44.86
2019-03-31T11:36:08.412Z,45.76
2019-03-31T11:38:41.989Z,45.72
2019-03-31T11:41:15.651Z,45.87
2019-03-31T11:43:49.205Z,46.24
2019-03-31T11:46:22.875Z,46.48
2019-03-31T11:48:56.508Z,46.13
2019-03-31T11:51:30.479Z,45.60
2019-03-31T11:54:04.180Z,46.54
2019-03-31T11:56:38.811Z,46.37
2019-03-31T11:59:12.375Z,46.66
2019-03-31T12:01:53.663Z,47.46
2019-03-31T12:04:28.677Z,47.36
2019-03-31T12:07:02.401Z,47.43
2019-03-31T12:09:37.250Z,47.03
2019-03-31T12:12:10.888Z,46.79
2019-03-31T12:14:44.452Z,46.69
2019-03-31T12:17:18.004Z,46.02
2019-03-31T12:19:51.651Z,45.83
2019-03-31T12:22:25.269Z,45.80
2019-03-31T12:24:58.920Z,45.50
2019-03-31T12:27:32.594Z,45.51
2019-03-31T12:30:08.721Z,44.83
2019-03-31T12:32:42.394Z,44.69
2019-03-31T12:35:15.971Z,45.39
2019-03-31T12:37:49.668Z,45.16
2019-03-31T12:40:37.035Z,44.92
2019-03-31T12:43:10.755Z,44.86
2019-03-31T12:45:48.735Z,45.05
2019-03-31T12:48:22.529Z,44.93
2019-03-31T12:50:58.103Z,45.59
2019-03-31T12:53:31.988Z,45.42
2019-03-31T12:56:05.684Z,46.04
2019-03-31T12:58:39.527Z,46.18
2019-03-31T13:01:13.283Z,46.15
2019-03-31T13:03:47.013Z,46.34
2019-03-31T13:06:20.780Z,47.22
2019-03-31T13:08:55.603Z,46.98
2019-03-31T13:11:29.452Z,46.65
2019-03-31T13:14:03.755Z,46.72
2019-03-31T13:16:38.601Z,46.40
2019-03-31T13:19:12.577Z,44.19
2019-03-31T13:21:46.534Z,45.37
2019-03-31T13:24:20.455Z,43.33
2019-03-31T13:26:54.411Z,44.17
2019-03-31T13:29:28.422Z,44.42
2019-03-31T13:32:02.394Z,44.92
2019-03-31T13:34:36.420Z,44.73
2019-03-31T13:37:10.328Z,45.14
2019-03-31T13:39:44.010Z,45.33
2019-03-31T13:42:17.689Z,45.99
2019-03-31T13:44:51.492Z,45.72
2019-03-31T13:47:25.173Z,45.66
2019-03-31T13:49:58.842Z,46.41
2019-03-31T13:52:32.512Z,45.95
2019-03-31T13:55:06.461Z,46.02
2019-03-31T13:57:42.253Z,46.29
2019-03-31T14:00:25.025Z,47.13
2019-03-31T14:02:55.815Z,48.44
2019-03-31T14:05:29.482Z,46.42
2019-03-31T14:08:24.672Z,46.55
2019-03-31T14:10:45.765Z,46.18
2019-03-31T14:13:19.563Z,46.00
2019-03-31T14:15:53.212Z,45.57
2019-03-31T14:18:26.771Z,45.07
2019-03-31T14:21:00.330Z,44.92
2019-03-31T14:23:33.906Z,45.62
2019-03-31T14:26:07.469Z,45.02
2019-03-31T14:28:41.265Z,45.50
2019-03-31T14:31:22.965Z,44.95
2019-03-31T14:33:58.907Z,44.55
2019-03-31T14:36:34.606Z,44.24
2019-03-31T14:39:10.707Z,44.60
2019-03-31T14:41:44.411Z,43.83
2019-03-31T14:44:17.994Z,43.81
2019-03-31T14:46:51.781Z,44.10
2019-03-31T14:49:26.028Z,43.88
2019-03-31T14:52:01.482Z,42.69
2019-03-31T14:54:35.291Z,42.24
2019-03-31T14:57:08.902Z,41.93
2019-03-31T14:59:42.488Z,41.05
2019-03-31T15:02:16.173Z,40.97
2019-03-31T15:04:50.219Z,40.49
2019-03-31T15:07:25.567Z,40.30
2019-03-31T15:10:01.386Z,40.15
2019-03-31T15:12:40.114Z,39.23
2019-03-31T15:15:15.400Z,38.73
2019-03-31T15:17:48.983Z,38.67
2019-03-31T15:20:22.751Z,38.62
2019-03-31T15:22:56.478Z,54.75
2019-03-31T15:25:30.212Z,39.81
2019-03-31T15:28:04.143Z,38.64
2019-03-31T15:30:37.877Z,38.63
2019-03-31T15:33:11.722Z,38.44
2019-03-31T15:35:45.407Z,38.62
2019-03-31T15:38:18.997Z,38.61
2019-03-31T15:40:52.971Z,38.41
2019-03-31T15:43:26.676Z,37.82
2019-03-31T15:46:00.420Z,37.83
2019-03-31T15:48:34.160Z,37.86
2019-03-31T15:51:15.439Z,38.10
2019-03-31T15:53:49.110Z,38.45
2019-03-31T15:56:23.864Z,38.66
2019-03-31T15:58:57.540Z,38.66
2019-03-31T16:01:31.166Z,38.67
2019-03-31T16:04:04.870Z,38.73
2019-03-31T16:06:39.600Z,37.79
2019-03-31T16:09:23.349Z,37.69
2019-03-31T16:11:53.616Z,36.97
2019-03-31T16:14:21.583Z,36.63
2019-03-31T16:16:54.487Z,36.74
2019-03-31T16:19:27.326Z,36.58
2019-03-31T16:22:00.139Z,36.61
2019-03-31T16:24:39.077Z,36.82
2019-03-31T16:27:11.919Z,36.12
2019-03-31T16:29:44.952Z,36.79
2019-03-31T16:32:17.855Z,36.55
2019-03-31T16:34:50.792Z,36.67
2019-03-31T16:37:23.618Z,36.99
2019-03-31T16:39:56.450Z,36.80
2019-03-31T16:42:29.273Z,36.51
2019-03-31T16:45:03.757Z,36.94
2019-03-31T16:47:36.654Z,36.22
2019-03-31T16:50:09.577Z,36.56
2019-03-31T16:52:42.392Z,36.36
2019-03-31T16:55:15.153Z,36.36
2019-03-31T16:57:47.897Z,36.15
2019-03-31T17:00:20.777Z,35.18
2019-03-31T17:02:53.594Z,35.98
2019-03-31T17:05:26.429Z,36.12
2019-03-31T17:07:59.622Z,35.75
2019-03-31T17:10:32.561Z,35.55
2019-03-31T17:13:05.291Z,35.02
2019-03-31T17:15:38.081Z,35.32
2019-03-31T17:18:10.918Z,35.28
2019-03-31T17:20:43.772Z,36.03
2019-03-31T17:23:16.532Z,35.56
2019-03-31T17:25:49.406Z,35.74
2019-03-31T17:28:22.338Z,35.79
2019-03-31T17:30:55.192Z,35.43
2019-03-31T17:33:30.277Z,36.23
2019-03-31T17:36:02.423Z,35.80
2019-03-31T17:38:35.327Z,36.12
2019-03-31T17:41:08.227Z,36.04
2019-03-31T17:43:41.063Z,35.73
2019-03-31T17:46:13.900Z,35.68
2019-03-31T17:48:46.645Z,36.11
2019-03-31T17:51:19.493Z,36.47
2019-03-31T17:53:52.318Z,35.91
2019-03-31T17:56:25.653Z,36.24
2019-03-31T17:58:58.550Z,36.07
2019-03-31T18:01:31.534Z,35.57
2019-03-31T18:04:04.335Z,35.09
2019-03-31T18:06:37.253Z,34.62
2019-03-31T18:09:10.655Z,34.57
2019-03-31T18:11:43.439Z,34.10
2019-03-31T18:14:16.207Z,33.30
2019-03-31T18:16:49.058Z,33.11
2019-03-31T18:19:24.540Z,33.27
2019-03-31T18:21:58.067Z,32.99
2019-03-31T18:24:31.139Z,33.49
2019-03-31T18:27:05.204Z,32.79
2019-03-31T18:29:39.731Z,32.76
2019-03-31T18:32:12.763Z,32.85
2019-03-31T18:34:45.677Z,32.47
2019-03-31T18:37:18.552Z,33.45
2019-03-31T18:39:51.449Z,33.13
2019-03-31T18:42:24.275Z,32.38
2019-03-31T18:44:57.228Z,32.74
2019-03-31T18:47:30.073Z,33.09
2019-03-31T18:50:02.950Z,33.40
2019-03-31T18:52:35.881Z,33.37
2019-03-31T18:55:30.206Z,34.00
2019-03-31T18:58:31.334Z,33.67
2019-03-31T19:01:21.721Z,34.22
2019-03-31T19:04:13.336Z,34.40
2019-03-31T19:07:18.090Z,35.00
2019-03-31T19:10:02.376Z,34.68
2019-03-31T19:12:50.537Z,35.12
2019-03-31T19:15:37.012Z,35.41
2019-03-31T19:18:21.108Z,35.32
2019-03-31T19:21:31.059Z,35.58
2019-03-31T19:24:38.831Z,36.01
2019-03-31T19:27:41.188Z,35.98
2019-03-31T19:30:45.418Z,36.32
2019-03-31T19:33:29.114Z,36.97
2019-03-31T19:36:23.824Z,36.94
2019-03-31T19:39:15.587Z,37.25
2019-03-31T19:42:01.634Z,37.82
2019-03-31T19:44:53.289Z,38.09
2019-03-31T19:47:44.911Z,38.30
2019-03-31T19:50:49.787Z,38.46
2019-03-31T19:53:41.525Z,38.95
2019-03-31T19:56:31.508Z,38.88
2019-03-31T19:59:21.957Z,39.27
2019-03-31T20:02:17.111Z,39.56
2019-03-31T20:05:02.225Z,39.67
2019-03-31T20:07:53.044Z,40.16
2019-03-31T20:10:43.745Z,40.47
2019-03-31T20:13:44.687Z,40.84
2019-03-31T20:16:35.064Z,40.97
2019-03-31T20:19:27.592Z,41.30
2019-03-31T20:22:11.365Z,41.30
2019-03-31T20:25:06.232Z,41.49
2019-03-31T20:28:07.116Z,41.62
2019-03-31T20:30:46.681Z,41.64
2019-03-31T20:33:44.174Z,41.86
2019-03-31T20:36:48.064Z,41.89
2019-03-31T20:39:56.437Z,41.96
2019-03-31T20:42:41.102Z,42.01
2019-03-31T20:45:14.008Z,42.45
2019-03-31T20:47:48.113Z,42.73
2019-03-31T20:50:24.942Z,42.74
2019-03-31T20:52:57.854Z,42.76
2019-03-31T20:55:30.661Z,43.11
2019-03-31T20:58:03.745Z,43.06
2019-03-31T21:00:36.557Z,43.28
2019-03-31T21:03:09.494Z,43.35
2019-03-31T21:05:42.602Z,43.45
2019-03-31T21:08:15.524Z,43.66
2019-03-31T21:10:48.402Z,43.95
2019-03-31T21:13:22.387Z,44.35
2019-03-31T21:15:55.639Z,44.86
2019-03-31T21:18:28.468Z,44.72
2019-03-31T21:21:01.323Z,44.90
2019-03-31T21:23:34.601Z,45.08
2019-03-31T21:26:07.494Z,45.11
2019-03-31T21:28:41.533Z,45.05
2019-03-31T21:31:14.710Z,45.37
2019-03-31T21:33:47.669Z,45.37
2019-03-31T21:36:20.553Z,45.65
2019-03-31T21:38:53.501Z,45.62
2019-03-31T21:41:27.338Z,45.61
2019-03-31T21:44:00.218Z,46.11
2019-03-31T21:46:32.961Z,46.33
2019-03-31T21:49:05.831Z,46.25
2019-03-31T21:51:38.719Z,46.63
2019-03-31T21:54:12.599Z,46.67
2019-03-31T21:56:45.475Z,46.63
2019-03-31T21:59:18.280Z,46.36
2019-03-31T22:01:51.008Z,46.13
2019-03-31T22:04:23.912Z,46.10
2019-03-31T22:06:56.793Z,46.38
2019-03-31T22:09:29.612Z,46.39
2019-03-31T22:12:02.334Z,46.52
2019-03-31T22:14:36.542Z,46.01
2019-03-31T22:17:09.257Z,46.32
2019-03-31T22:19:42.001Z,46.30
2019-03-31T22:22:14.819Z,46.46
2019-03-31T22:24:48.730Z,46.24
2019-03-31T22:27:21.594Z,46.28
2019-03-31T22:29:54.636Z,46.42
2019-03-31T22:32:28.524Z,46.47
2019-03-31T22:35:01.374Z,46.42
2019-03-31T22:37:34.361Z,46.57
2019-03-31T22:40:07.340Z,46.58
2019-03-31T22:42:40.202Z,46.73
2019-03-31T22:45:14.449Z,46.98
2019-03-31T22:47:47.336Z,47.15
2019-03-31T22:50:20.549Z,47.51
2019-03-31T22:52:54.353Z,47.49
2019-03-31T22:55:27.165Z,47.81
2019-03-31T22:58:00.027Z,47.88
2019-03-31T23:00:32.835Z,48.04
2019-03-31T23:03:05.697Z,48.13
2019-03-31T23:05:38.528Z,48.24
2019-03-31T23:08:11.395Z,48.37
2019-03-31T23:10:44.618Z,48.73
2019-03-31T23:13:17.342Z,48.70
2019-03-31T23:15:50.260Z,48.71
2019-03-31T23:18:23.144Z,49.00
2019-03-31T23:20:56.963Z,49.41
2019-03-31T23:23:30.114Z,49.36
2019-03-31T23:26:02.962Z,49.22
2019-03-31T23:28:37.519Z,49.51
2019-03-31T23:31:10.257Z,49.49
2019-03-31T23:33:43.016Z,49.45
2019-03-31T23:36:15.780Z,49.88
2019-03-31T23:38:48.828Z,49.67
2019-03-31T23:41:21.598Z,49.75
2019-03-31T23:43:54.404Z,50.17
2019-03-31T23:46:27.938Z,50.03
2019-03-31T23:49:00.740Z,50.02
2019-03-31T23:51:33.592Z,50.42
2019-03-31T23:54:06.426Z,50.40
2019-03-31T23:56:40.255Z,50.24
2019-03-31T23:59:13.058Z,50.40
